Time;durP1;ratioP1;P1;durP2;ratioP2;P2;SDS_P1;SDS_P2;PMS_P1;PMS_P2;Temp;Humidity;BMP_temperature;BMP_pressure;BME280_temperature;BME280_humidity;BME280_pressure;Samples;Min_cycle;Max_cycle;Signal;HPM_P1;HPM_P2
2022/11/22 00:00:26;;;;;;;24.20;7.08;;;;;;;10.62;86.86;99263.67;1649496;85;21722;-58
2022/11/22 00:03:31;;;;;;;21.70;6.92;;;;;;;10.62;86.89;99267.77;1649577;87;21289;-59
2022/11/22 00:06:39;;;;;;;26.95;7.97;;;;;;;10.55;86.88;99266.38;1649657;85;21390;-58
2022/11/22 00:09:46;;;;;;;31.00;7.80;;;;;;;10.53;86.90;99269.31;1649562;86;21249;-59
2022/11/22 00:12:52;;;;;;;30.68;6.90;;;;;;;10.50;86.91;99265.61;1649509;87;21220;-60
2022/11/22 00:16:07;;;;;;;22.02;6.72;;;;;;;10.47;86.96;99261.92;1640441;86;21261;-59
2022/11/22 00:19:13;;;;;;;25.97;7.20;;;;;;;10.45;87.03;99256.31;1649536;87;21233;-59
2022/11/22 00:22:19;;;;;;;31.25;7.50;;;;;;;10.46;87.08;99261.58;1651309;84;21217;-59
2022/11/22 00:25:26;;;;;;;29.05;7.28;;;;;;;10.45;87.13;99263.15;1640505;85;21248;-59
2022/11/22 00:28:32;;;;;;;19.98;6.72;;;;;;;10.45;87.21;99263.15;1649494;87;21273;-59
2022/11/22 00:31:37;;;;;;;39.67;8.73;;;;;;;10.44;87.21;99260.10;1649516;85;21239;-60
2022/11/22 00:34:43;;;;;;;28.02;6.72;;;;;;;10.45;87.26;99259.91;1649445;87;21233;-60
2022/11/22 00:37:49;;;;;;;30.25;7.87;;;;;;;10.46;87.26;99262.95;1649543;87;21237;-59
2022/11/22 00:40:56;;;;;;;30.85;7.33;;;;;;;10.45;87.27;99272.21;1649536;85;21221;-59
2022/11/22 00:44:02;;;;;;;28.20;7.40;;;;;;;10.45;87.34;99272.21;1649550;87;21360;-59
2022/11/22 00:47:09;;;;;;;21.27;7.87;;;;;;;10.51;87.42;99278.78;1649519;85;21450;-58
2022/11/22 00:50:15;;;;;;;28.90;7.83;;;;;;;10.59;87.49;99278.07;1649418;85;21276;-58
2022/11/22 00:53:22;;;;;;;26.68;7.28;;;;;;;10.68;87.52;99282.00;1649524;87;21237;-59
2022/11/22 00:56:30;;;;;;;29.30;7.67;;;;;;;10.76;87.56;99283.20;1649538;85;21288;-58
2022/11/22 00:59:39;;;;;;;24.50;7.45;;;;;;;10.80;87.58;99270.27;1649488;87;21942;-60
2022/11/22 01:02:47;;;;;;;25.23;7.58;;;;;;;10.88;87.62;99272.83;1649460;87;21698;-59
2022/11/22 01:05:54;;;;;;;23.15;6.80;;;;;;;10.91;87.65;99272.97;1649537;85;21814;-59
2022/11/22 01:09:02;;;;;;;23.18;7.17;;;;;;;10.96;87.69;99277.27;1649529;87;21363;-59
2022/11/22 01:12:09;;;;;;;27.48;7.90;;;;;;;11.00;87.71;99276.69;1649533;85;21312;-59
2022/11/22 01:15:15;;;;;;;23.20;7.47;;;;;;;11.07;87.71;99284.93;1649554;85;21222;-59
2022/11/22 01:18:22;;;;;;;24.87;7.60;;;;;;;11.11;87.69;99282.08;1649381;87;21229;-60
2022/11/22 01:21:28;;;;;;;26.77;6.70;;;;;;;11.14;87.66;99280.30;1649444;85;21222;-59
2022/11/22 01:24:34;;;;;;;27.73;7.60;;;;;;;11.17;87.66;99285.36;1640379;87;21225;-59
2022/11/22 01:27:43;;;;;;;39.05;8.58;;;;;;;11.20;87.67;99286.31;1649620;87;21237;-60
2022/11/22 01:30:49;;;;;;;31.95;8.03;;;;;;;11.22;87.65;99286.45;1649507;85;21237;-60
2022/11/22 01:33:56;;;;;;;31.68;8.28;;;;;;;11.25;87.61;99290.14;1649529;86;21281;-60
2022/11/22 01:37:01;;;;;;;33.10;8.10;;;;;;;11.26;87.58;99287.70;1649440;85;21313;-60
2022/11/22 01:40:06;;;;;;;20.97;7.53;;;;;;;11.28;87.57;99288.34;1649436;85;21232;-58
2022/11/22 01:43:15;;;;;;;33.95;8.03;;;;;;;11.31;87.57;99290.67;1649478;87;21289;-59
2022/11/22 01:46:33;;;;;;;24.55;9.28;;;;;;;11.35;87.58;99296.59;1649500;85;21280;-60
2022/11/22 01:50:07;;;;;;;18.17;8.50;;;;;;;11.36;87.43;99361.28;1649506;87;22269;-59
2022/11/22 01:53:17;;;;;;;17.48;8.05;;;;;;;11.03;86.62;99350.72;1649442;87;21237;-59
2022/11/22 01:56:24;;;;;;;16.85;8.23;;;;;;;10.51;85.92;99353.48;1649547;85;21260;-58
2022/11/22 01:59:31;;;;;;;14.83;7.87;;;;;;;10.15;85.60;99364.25;1649434;87;21225;-59
2022/11/22 02:02:37;;;;;;;14.63;7.45;;;;;;;9.87;85.43;99362.84;1649472;87;21221;-59
2022/11/22 02:05:43;;;;;;;14.95;8.18;;;;;;;9.62;85.39;99362.91;1649521;85;21308;-60
2022/11/22 02:09:03;;;;;;;12.43;7.72;;;;;;;9.49;85.44;99367.38;1649449;85;21269;-61
2022/11/22 02:12:10;;;;;;;12.43;7.37;;;;;;;9.33;85.40;99371.20;1649538;85;21269;-60
2022/11/22 02:15:17;;;;;;;11.15;6.47;;;;;;;9.22;85.47;99375.79;1649486;85;21726;-60
2022/11/22 02:18:24;;;;;;;13.32;7.05;;;;;;;9.12;85.51;99382.06;1641140;87;21706;-60
2022/11/22 02:21:30;;;;;;;13.13;6.25;;;;;;;9.06;85.57;99384.19;1649393;85;21415;-59
2022/11/22 02:24:42;;;;;;;10.35;6.25;;;;;;;9.00;85.55;99394.52;1640528;85;21248;-59
2022/11/22 02:27:48;;;;;;;;;;;;;;;8.87;85.50;99397.05;1651621;87;21205;-59
2022/11/22 02:30:53;;;;;;;14.60;6.70;;;;;;;8.75;85.45;99391.76;1649209;85;20207;-60
2022/11/22 02:34:02;;;;;;;9.10;6.22;;;;;;;8.65;85.51;99399.37;1649219;87;21365;-60
2022/11/22 02:37:09;;;;;;;10.55;6.00;;;;;;;8.58;85.52;99411.53;1649184;85;21785;-59
2022/11/22 02:40:17;;;;;;;11.65;6.62;;;;;;;8.52;85.60;99400.02;1649149;85;21268;-59
2022/11/22 02:43:30;;;;;;;10.00;6.53;;;;;;;8.47;85.60;99419.32;1649219;87;21231;-59
2022/11/22 02:46:35;;;;;;;9.33;6.33;;;;;;;8.41;85.67;99425.53;1649248;85;21688;-59
2022/11/22 02:49:41;;;;;;;10.43;5.75;;;;;;;8.37;85.63;99436.48;1649135;87;21788;-59
2022/11/22 02:52:46;;;;;;;8.15;5.20;;;;;;;8.26;85.54;99432.84;1649085;85;21280;-59
2022/11/22 02:55:53;;;;;;;9.43;5.95;;;;;;;8.17;85.54;99432.02;1649203;85;21221;-59
2022/11/22 02:58:59;;;;;;;7.35;4.95;;;;;;;8.13;85.63;99447.06;1649174;87;21229;-59
2022/11/22 03:02:06;;;;;;;8.78;5.47;;;;;;;8.09;85.62;99451.67;1649171;85;21228;-60
2022/11/22 03:05:12;;;;;;;9.43;5.15;;;;;;;7.95;85.42;99451.11;1649211;85;21391;-59
2022/11/22 03:08:18;;;;;;;6.62;4.83;;;;;;;7.82;85.42;99453.08;1640797;87;21265;-59
2022/11/22 03:11:24;;;;;;;7.78;5.17;;;;;;;7.76;85.41;99457.03;1640015;86;21300;-60
2022/11/22 03:14:31;;;;;;;10.43;6.10;;;;;;;7.68;85.36;99468.84;1649237;87;21233;-61
2022/11/22 03:17:38;;;;;;;8.13;5.50;;;;;;;7.58;85.34;99464.98;1649217;85;21265;-59
2022/11/22 03:20:44;;;;;;;9.73;5.90;;;;;;;7.51;85.45;99476.78;1640075;85;21225;-59
2022/11/22 03:23:51;;;;;;;10.13;6.62;;;;;;;7.45;85.47;99474.23;1649182;87;21233;-60
2022/11/22 03:26:56;;;;;;;10.93;6.37;;;;;;;7.40;85.47;99482.08;1689912;83;21232;-60
2022/11/22 03:30:02;;;;;;;9.63;6.92;;;;;;;7.33;85.44;99485.20;1689957;85;21422;-60
2022/11/22 03:33:09;;;;;;;12.03;6.95;;;;;;;7.25;85.43;99494.77;1689938;85;21235;-60
2022/11/22 03:36:15;;;;;;;10.72;6.70;;;;;;;7.19;85.45;99490.53;1689881;83;21322;-59
2022/11/22 03:39:21;;;;;;;8.00;5.87;;;;;;;7.13;85.48;99483.94;1689909;85;21224;-60
2022/11/22 03:42:28;;;;;;;8.58;6.05;;;;;;;7.05;85.36;99494.84;1689970;83;21240;-59
2022/11/22 03:45:34;;;;;;;10.08;6.40;;;;;;;6.88;85.14;99494.53;1689870;83;21761;-58
2022/11/22 03:48:41;;;;;;;10.50;6.22;;;;;;;6.71;85.11;99502.41;1689968;85;21208;-59
2022/11/22 03:51:48;;;;;;;9.13;5.95;;;;;;;6.58;85.02;99502.08;1689923;83;21393;-60
2022/11/22 03:54:54;;;;;;;8.45;5.65;;;;;;;6.44;85.02;99501.95;1689918;85;21239;-60
2022/11/22 03:58:00;;;;;;;8.00;5.70;;;;;;;6.33;85.04;99507.20;1689539;85;21441;-60
2022/11/22 04:01:07;;;;;;;8.03;5.28;;;;;;;6.27;85.10;99511.96;1689522;83;21382;-58
2022/11/22 04:04:13;;;;;;;11.50;5.20;;;;;;;6.20;85.09;99514.17;1689445;85;21323;-60
2022/11/22 04:07:18;;;;;;;7.90;4.95;;;;;;;6.15;85.17;99518.77;1689458;83;21816;-60
2022/11/22 04:10:23;;;;;;;7.00;5.25;;;;;;;6.16;85.26;99523.66;1689367;83;21307;-60
2022/11/22 04:16:53;;;;;;;8.55;6.10;;;;;;;6.14;85.23;99531.16;1689180;83;21382;-59
2022/11/22 04:23:26;;;;;;;8.83;5.83;;;;;;;6.06;85.22;99536.91;1688935;85;21572;-59
2022/11/22 04:26:33;;;;;;;7.47;5.20;;;;;;;6.00;85.22;99548.95;1674099;83;21257;-59
2022/11/22 04:29:42;;;;;;;7.78;5.78;;;;;;;5.95;85.18;99567.11;1640679;87;21592;-58
2022/11/22 04:32:50;;;;;;;9.63;6.00;;;;;;;5.92;85.22;99563.88;1649567;87;21229;-57
2022/11/22 04:35:57;;;;;;;8.58;5.58;;;;;;;5.87;85.14;99560.80;1649505;85;21233;-58
2022/11/22 04:39:05;;;;;;;7.78;5.40;;;;;;;5.78;85.10;99563.12;1649433;87;21225;-58
2022/11/22 04:45:37;;;;;;;8.30;4.78;;;;;;;5.56;84.80;99570.53;1649515;85;21304;-59
2022/11/22 04:48:44;;;;;;;9.28;5.62;;;;;;;5.39;84.68;99579.63;1649446;87;21198;-59
2022/11/22 04:55:16;;;;;;;6.67;4.92;;;;;;;5.20;84.76;99582.58;1649572;85;21252;-59
2022/11/22 04:58:22;;;;;;;6.80;4.87;;;;;;;5.12;84.74;99586.06;1649514;87;21269;-59
2022/11/22 05:01:28;;;;;;;7.35;4.90;;;;;;;5.05;84.76;99605.86;1649587;85;21363;-59
2022/11/22 06:29:37;;;;;;;16.77;11.73;;;;;;;4.71;85.14;99726.94;1854195;76;27983;-60
2022/11/22 06:32:45;;;;;;;19.20;12.60;;;;;;;4.74;84.91;99715.26;1766031;81;21221;-58
2022/11/22 06:35:53;;;;;;;12.35;7.22;;;;;;;4.72;84.72;99706.45;1730562;82;21222;-64
2022/11/22 06:39:03;;;;;;;14.53;7.85;;;;;;;4.70;84.68;99715.23;1742483;81;21190;-61
2022/11/22 06:42:10;;;;;;;18.80;10.38;;;;;;;4.69;84.69;99719.45;1828723;78;21867;-62
2022/11/22 06:45:18;;;;;;;18.57;10.58;;;;;;;4.65;84.62;99740.59;1840178;77;21325;-60
2022/11/22 06:48:23;;;;;;;15.53;9.08;;;;;;;4.57;84.54;99741.86;1793196;78;21220;-57
2022/11/22 06:51:33;;;;;;;14.60;9.05;;;;;;;4.52;84.55;99739.62;1766262;79;21195;-57
2022/11/22 06:54:38;;;;;;;15.55;9.68;;;;;;;4.47;84.51;99739.22;1766737;80;21200;-57
2022/11/22 06:57:44;;;;;;;16.35;9.43;;;;;;;4.44;84.46;99744.95;1766323;79;21791;-62
2022/11/22 07:00:50;;;;;;;17.73;9.88;;;;;;;4.39;84.43;99744.55;1793629;79;21767;-62
2022/11/22 07:03:56;;;;;;;20.80;10.15;;;;;;;4.35;84.41;99726.05;1799682;79;21237;-59
2022/11/22 07:07:03;;;;;;;17.60;9.95;;;;;;;4.30;84.45;99721.09;1781367;79;21394;-60
2022/11/22 07:10:14;;;;;;;17.42;9.78;;;;;;;4.34;84.56;99722.47;1800848;78;21285;-59
2022/11/22 07:13:20;;;;;;;18.57;10.93;;;;;;;4.36;84.53;99742.14;1785891;79;21184;-57
2022/11/22 07:16:27;;;;;;;16.48;10.93;;;;;;;4.42;84.57;99738.82;1787665;78;21195;-60
2022/11/22 07:19:28;;;;;;;15.50;9.90;;;;;;;4.47;84.58;99737.86;1814792;79;21196;-61
2022/11/22 07:22:22;;;;;;;19.95;12.93;;;;;;;4.54;84.61;99730.84;1812830;78;21212;-58
2022/11/22 07:25:09;;;;;;;14.60;10.65;;;;;;;4.63;84.70;99733.64;1811577;79;21386;-61
2022/11/22 07:28:00;;;;;;;15.18;9.65;;;;;;;4.72;84.69;99731.34;1760717;79;21228;-60
2022/11/22 07:31:11;;;;;;;18.42;11.10;;;;;;;4.76;84.59;99739.53;1740630;82;21824;-60
2022/11/22 07:34:19;;;;;;;21.53;11.90;;;;;;;4.74;84.52;99751.86;1774569;81;21712;-60
2022/11/22 07:37:25;;;;;;;14.83;9.38;;;;;;;4.80;84.61;99754.47;1750375;80;21612;-61
2022/11/22 07:40:30;;;;;;;20.62;14.13;;;;;;;4.81;84.53;99752.09;1765310;79;21726;-61
2022/11/22 07:43:36;;;;;;;15.25;10.40;;;;;;;4.78;84.40;99749.70;1764254;80;21256;-60
2022/11/22 07:46:43;;;;;;;13.35;9.10;;;;;;;4.71;84.30;99753.52;1729770;79;21784;-59
2022/11/22 07:49:49;;;;;;;22.62;14.80;;;;;;;4.67;84.27;99747.21;1777713;79;21193;-60
2022/11/22 07:53:05;;;;;;;16.70;11.33;;;;;;;4.63;84.22;99741.77;1759108;81;21229;-61
2022/11/22 07:56:14;;;;;;;14.45;9.85;;;;;;;4.59;84.17;99742.57;1774190;81;21181;-58
2022/11/22 07:59:20;;;;;;;18.42;12.88;;;;;;;4.57;84.21;99752.70;1740632;81;21376;-61
2022/11/22 08:02:29;;;;;;;23.85;16.35;;;;;;;4.56;84.24;99745.59;1753088;80;21738;-58
2022/11/22 08:05:41;;;;;;;21.45;13.05;;;;;;;4.57;84.33;99754.92;1759959;80;21250;-58
2022/11/22 08:08:48;;;;;;;29.42;15.63;;;;;;;4.60;84.38;99754.61;1767225;79;21248;-58
2022/11/22 08:11:56;;;;;;;18.82;11.28;;;;;;;4.63;84.46;99762.09;1767088;79;21333;-59
2022/11/22 08:15:02;;;;;;;19.40;12.47;;;;;;;4.63;84.41;99752.61;1769446;81;21272;-60
2022/11/22 08:18:17;;;;;;;14.58;9.65;;;;;;;4.59;84.39;99772.38;1786141;79;21613;-64
2022/11/22 08:21:26;;;;;;;14.05;9.55;;;;;;;4.62;84.42;99776.14;1707174;82;21200;-62
2022/11/22 08:24:34;;;;;;;12.15;8.53;;;;;;;4.63;84.33;99778.36;1712033;82;21519;-62
2022/11/22 08:27:41;;;;;;;12.05;9.15;;;;;;;4.58;84.23;99794.56;1733914;81;21728;-63
2022/11/22 08:30:48;;;;;;;10.68;8.43;;;;;;;4.54;84.10;99785.53;1726983;79;21749;-63
2022/11/22 08:33:53;;;;;;;12.68;9.23;;;;;;;4.48;83.96;99787.02;1773429;80;21236;-61
2022/11/22 08:36:59;;;;;;;12.40;9.40;;;;;;;4.35;83.80;99789.22;1770274;80;21217;-62
2022/11/22 08:40:06;;;;;;;12.10;8.83;;;;;;;4.28;83.80;99793.52;1777113;79;21236;-63
2022/11/22 08:43:23;;;;;;;12.00;8.58;;;;;;;4.19;83.81;99786.30;1732324;82;21213;-63
2022/11/22 08:46:36;;;;;;;12.00;9.05;;;;;;;4.17;83.87;99789.66;1722577;82;21214;-61
2022/11/22 08:49:42;;;;;;;12.37;9.30;;;;;;;4.10;83.81;99773.67;1726036;81;21269;-63
2022/11/22 08:52:48;;;;;;;12.15;8.85;;;;;;;4.07;83.89;99764.50;1706094;82;21211;-64
2022/11/22 08:55:54;;;;;;;11.95;8.63;;;;;;;4.12;84.04;99770.81;1705339;84;21230;-64
2022/11/22 08:59:01;;;;;;;10.85;8.48;;;;;;;4.14;84.05;99762.88;1702202;84;21304;-61
2022/11/22 09:02:09;;;;;;;12.23;9.40;;;;;;;4.17;84.06;99765.28;1723686;82;21281;-66
2022/11/22 09:05:16;;;;;;;16.82;11.22;;;;;;;4.19;84.05;99775.47;1712816;82;21237;-62
2022/11/22 09:08:24;;;;;;;15.13;10.55;;;;;;;4.21;83.96;99777.54;1726121;82;21289;-63
2022/11/22 09:11:33;;;;;;;13.55;10.25;;;;;;;4.22;84.00;99779.23;1760079;80;21203;-60
2022/11/22 09:14:39;;;;;;;10.25;8.25;;;;;;;4.22;83.96;99780.59;1775366;80;21243;-62
2022/11/22 09:17:52;;;;;;;12.35;9.40;;;;;;;4.24;83.92;99780.44;1742788;81;21496;-62
2022/11/22 09:21:09;;;;;;;10.28;7.97;;;;;;;4.20;83.85;99781.23;1788788;80;21322;-63
2022/11/22 09:24:17;;;;;;;11.03;8.98;;;;;;;4.19;83.83;99789.02;1780162;80;21168;-65
2022/11/22 09:27:24;;;;;;;12.10;10.72;;;;;;;4.12;83.73;99786.54;1724416;82;21555;-64
2022/11/22 09:30:31;;;;;;;13.40;9.78;;;;;;;4.10;83.72;99776.38;1725029;79;21317;-62
2022/11/22 09:33:38;;;;;;;9.65;8.30;;;;;;;4.05;83.65;99761.08;1733505;82;21773;-64
2022/11/22 09:36:44;;;;;;;10.82;8.80;;;;;;;3.98;83.57;99762.66;1801196;79;21293;-62
2022/11/22 09:39:53;;;;;;;10.65;8.55;;;;;;;3.93;83.55;99766.31;1767687;80;21192;-64
2022/11/22 09:43:19;;;;;;;8.93;7.45;;;;;;;3.93;83.64;99765.48;1737537;82;21279;-65
2022/11/22 09:46:33;;;;;;;12.50;9.30;;;;;;;4.00;83.76;99771.50;1752542;80;21248;-61
2022/11/22 09:50:05;;;;;;;12.88;9.45;;;;;;;4.03;83.74;99768.49;1763935;81;21179;-64
2022/11/22 09:53:31;;;;;;;12.80;8.90;;;;;;;4.06;83.73;99764.13;1754328;80;21196;-61
2022/11/22 09:56:38;;;;;;;13.18;10.03;;;;;;;4.07;83.69;99778.53;1754773;81;21777;-64
2022/11/22 09:59:43;;;;;;;12.82;9.00;;;;;;;4.03;83.60;99777.97;1785058;79;21190;-64
2022/11/22 10:02:57;;;;;;;11.30;8.53;;;;;;;3.98;83.53;99768.08;1760590;80;21879;-64
2022/11/22 10:06:07;;;;;;;10.63;8.55;;;;;;;3.93;83.43;99768.19;1753015;80;21194;-63
2022/11/22 10:09:39;;;;;;;12.50;8.33;;;;;;;3.90;83.45;99772.55;1764613;81;21202;-63
2022/11/22 10:12:57;;;;;;;11.15;7.85;;;;;;;3.87;83.45;99778.27;1804188;79;21615;-62
2022/11/22 10:16:23;;;;;;;11.90;8.65;;;;;;;3.85;83.53;99775.71;1765594;81;21693;-62
2022/11/22 10:19:38;;;;;;;11.63;7.97;;;;;;;3.84;83.52;99779.89;1796598;79;21827;-63
2022/11/22 10:22:44;;;;;;;10.10;7.80;;;;;;;3.82;83.50;99778.69;1786354;79;21384;-62
2022/11/22 10:25:56;;;;;;;12.07;7.92;;;;;;;3.77;83.47;99782.85;1797317;79;21780;-61
2022/11/22 10:29:28;;;;;;;11.15;8.00;;;;;;;3.73;83.50;99782.28;1760639;80;21386;-62
2022/11/22 10:32:49;;;;;;;13.53;8.88;;;;;;;3.65;83.38;99783.52;1783128;76;21610;-62
2022/11/22 10:36:03;;;;;;;10.48;7.90;;;;;;;3.57;83.33;99782.05;1755693;81;21285;-62
2022/11/22 10:39:23;;;;;;;16.42;9.43;;;;;;;3.54;83.30;99790.45;1749683;81;21216;-62
2022/11/22 10:43:08;;;;;;;9.28;7.28;;;;;;;3.49;83.24;99802.21;1743824;80;21264;-62
2022/11/22 10:46:35;;;;;;;8.68;6.50;;;;;;;3.45;83.25;99803.52;1724583;82;21208;-62
2022/11/22 10:50:25;;;;;;;10.58;6.80;;;;;;;3.43;83.31;99805.99;1724155;83;21362;-62
2022/11/22 10:53:59;;;;;;;8.28;6.00;;;;;;;3.44;83.40;99819.89;1724451;81;21802;-62
2022/11/22 10:57:22;;;;;;;27.25;12.93;;;;;;;3.53;83.51;99825.78;1713556;82;21200;-62
2022/11/22 11:00:30;;;;;;;11.22;8.05;;;;;;;3.56;83.51;99814.17;1709974;83;21325;-61
2022/11/22 11:03:45;;;;;;;9.40;6.65;;;;;;;3.54;83.49;99821.58;1737565;81;21227;-60
2022/11/22 11:07:04;;;;;;;7.72;5.70;;;;;;;3.60;83.55;99828.27;1745934;82;21255;-59
2022/11/22 11:10:16;;;;;;;9.10;6.40;;;;;;;3.62;83.49;99827.11;1754829;81;21233;-60
2022/11/22 11:13:37;;;;;;;9.85;6.97;;;;;;;3.57;83.34;99835.33;1746449;81;21201;-59
2022/11/22 11:16:43;;;;;;;10.05;6.83;;;;;;;3.54;83.30;99836.45;1741593;80;21209;-61
2022/11/22 11:19:49;;;;;;;14.50;9.55;;;;;;;3.45;83.18;99827.00;1755781;81;21252;-59
2022/11/22 11:22:55;;;;;;;11.93;8.10;;;;;;;3.41;83.19;99830.48;1751268;80;21247;-60
2022/11/22 11:26:02;;;;;;;7.75;6.08;;;;;;;3.44;83.33;99828.84;1723558;83;21292;-58
2022/11/22 11:29:30;;;;;;;8.28;6.22;;;;;;;3.46;83.31;99830.91;1734932;81;21201;-60
2022/11/22 11:32:37;;;;;;;11.40;8.25;;;;;;;3.43;83.25;99833.91;1751926;80;21753;-59
2022/11/22 11:35:43;;;;;;;9.53;6.75;;;;;;;3.35;83.10;99825.66;1787292;79;21207;-58
2022/11/22 11:39:00;;;;;;;8.00;5.85;;;;;;;3.27;83.06;99823.34;1803885;79;21311;-61
2022/11/22 11:42:05;;;;;;;10.13;7.53;;;;;;;3.22;83.11;99810.22;1797536;79;21209;-60
2022/11/22 11:45:34;;;;;;;15.88;9.08;;;;;;;3.21;83.14;99817.98;1799087;79;21196;-60
2022/11/22 11:48:44;;;;;;;9.78;6.90;;;;;;;3.24;83.22;99822.23;1797724;79;21225;-58
2022/11/22 11:51:51;;;;;;;11.00;8.18;;;;;;;3.22;83.23;99830.50;1798321;79;21317;-62
2022/11/22 11:55:00;;;;;;;16.02;9.15;;;;;;;3.18;83.18;99826.39;1767241;81;21232;-58
2022/11/22 11:58:06;;;;;;;9.45;7.83;;;;;;;3.13;83.17;99821.03;1767996;81;21228;-59
2022/11/22 12:01:19;;;;;;;11.65;9.28;;;;;;;3.08;83.17;99817.41;1768201;81;21248;-59
2022/11/22 12:04:34;;;;;;;11.38;9.08;;;;;;;3.05;83.24;99817.22;1752335;79;21218;-59
2022/11/22 12:07:46;;;;;;;12.13;8.90;;;;;;;3.06;83.33;99821.61;1779848;79;21561;-56
2022/11/22 12:11:17;;;;;;;11.00;8.48;;;;;;;3.07;83.39;99818.42;1767054;81;21342;-56
2022/11/22 12:14:23;;;;;;;10.95;8.98;;;;;;;3.06;83.41;99817.56;1796407;79;22062;-57
2022/11/22 12:17:34;;;;;;;12.13;9.50;;;;;;;3.09;83.48;99821.33;1754731;79;21328;-58
2022/11/22 12:21:14;;;;;;;23.90;15.85;;;;;;;3.12;83.51;99815.28;1765382;81;21245;-58
2022/11/22 12:24:37;;;;;;;13.85;9.85;;;;;;;3.09;83.46;99806.98;1756428;80;21180;-57
2022/11/22 12:27:44;;;;;;;12.28;8.93;;;;;;;3.08;83.47;99803.89;1750308;80;21199;-58
2022/11/22 12:30:54;;;;;;;12.75;10.45;;;;;;;3.07;83.46;99806.25;1765683;80;21239;-57
2022/11/22 12:34:20;;;;;;;12.98;10.10;;;;;;;3.09;83.52;99808.33;1763837;80;21718;-56
2022/11/22 12:37:43;;;;;;;12.80;10.43;;;;;;;3.06;83.43;99805.39;1749485;79;21238;-57
2022/11/22 12:40:56;;;;;;;12.82;10.78;;;;;;;3.01;83.41;99817.64;1755723;80;21207;-60
2022/11/22 12:44:04;;;;;;;12.30;10.35;;;;;;;2.98;83.48;99810.66;1739366;80;21228;-59
2022/11/22 12:47:17;;;;;;;14.93;11.35;;;;;;;2.99;83.41;99803.41;1768545;79;21781;-60
2022/11/22 12:50:47;;;;;;;13.15;9.85;;;;;;;3.00;83.43;99807.80;1760706;80;21274;-58
2022/11/22 12:53:55;;;;;;;16.93;10.88;;;;;;;2.97;83.39;99818.91;1766069;81;21511;-61
2022/11/22 12:57:04;;;;;;;14.15;9.83;;;;;;;2.90;83.27;99826.72;1792995;79;21725;-60
2022/11/22 13:00:23;;;;;;;13.18;9.83;;;;;;;2.90;83.35;99829.95;1749292;80;21228;-59
2022/11/22 13:03:34;;;;;;;18.52;11.65;;;;;;;2.85;83.26;99839.80;1763804;80;21593;-59
2022/11/22 13:06:46;;;;;;;14.58;11.30;;;;;;;2.80;83.25;99831.77;1764004;80;21200;-60
2022/11/22 13:10:06;;;;;;;14.23;10.80;;;;;;;2.78;83.27;99835.10;1735960;81;21193;-59
2022/11/22 13:13:14;;;;;;;15.65;10.53;;;;;;;2.74;83.26;99837.74;1735758;82;21226;-59
2022/11/22 13:16:22;;;;;;;12.70;10.15;;;;;;;2.69;83.32;99854.38;1750428;81;21284;-57
2022/11/22 13:19:30;;;;;;;17.67;12.47;;;;;;;2.66;83.27;99857.33;1758543;81;21208;-57
2022/11/22 13:23:14;;;;;;;15.83;12.33;;;;;;;2.65;83.32;99864.23;1760995;79;21733;-58
2022/11/22 13:26:47;;;;;;;18.82;13.58;;;;;;;2.68;83.44;99866.68;1745064;81;21732;-59
2022/11/22 13:29:59;;;;;;;15.95;11.78;;;;;;;2.68;83.41;99863.45;1754335;79;21245;-59
2022/11/22 13:33:31;;;;;;;17.85;13.08;;;;;;;2.65;83.35;99869.63;1765569;80;21483;-59
2022/11/22 13:36:44;;;;;;;19.45;13.20;;;;;;;2.66;83.44;99877.59;1771818;79;21229;-56
2022/11/22 13:39:54;;;;;;;21.68;14.18;;;;;;;2.66;83.46;99892.97;1779308;79;21243;-57
2022/11/22 13:43:24;;;;;;;18.30;12.13;;;;;;;2.67;83.50;99882.02;1790410;78;21494;-57
2022/11/22 13:46:59;;;;;;;17.87;12.35;;;;;;;2.68;83.50;99874.78;1729967;82;21212;-55
2022/11/22 13:50:05;;;;;;;14.95;11.25;;;;;;;2.66;83.45;99878.11;1741765;82;21310;-57
2022/11/22 13:53:34;;;;;;;47.93;28.85;;;;;;;2.59;83.32;99868.84;1729496;82;21212;-54
2022/11/22 13:56:53;;;;;;;23.00;14.85;;;;;;;2.56;83.33;99867.77;1817845;77;21180;-57
2022/11/22 14:00:21;;;;;;;30.32;15.53;;;;;;;2.52;83.29;99876.64;1805878;77;22483;-57
2022/11/22 14:03:31;;;;;;;21.33;13.45;;;;;;;2.45;83.19;99873.28;1779022;79;21264;-57
2022/11/22 14:06:38;;;;;;;23.30;14.28;;;;;;;2.40;83.20;99871.48;1796948;78;21177;-59
2022/11/22 14:09:58;;;;;;;24.55;14.78;;;;;;;2.40;83.28;99891.73;1785401;78;21181;-57
2022/11/22 14:13:25;;;;;;;46.05;25.20;;;;;;;2.41;83.32;99894.81;1796505;79;21749;-58
2022/11/22 14:16:51;;;;;;;21.65;13.90;;;;;;;2.43;83.37;99903.13;1784984;79;21164;-60
2022/11/22 14:20:37;;;;;;;17.30;11.33;;;;;;;2.48;83.43;99910.81;1789584;79;21765;-57
2022/11/22 14:24:08;;;;;;;22.32;12.10;;;;;;;2.53;83.55;99912.62;1781962;79;21232;-57
2022/11/22 14:27:35;;;;;;;17.70;11.70;;;;;;;2.62;83.70;99923.94;1795649;80;21184;-57
2022/11/22 14:30:58;;;;;;;26.65;15.90;;;;;;;2.63;83.56;99928.38;1765659;81;21196;-58
2022/11/22 14:34:31;;;;;;;27.47;17.37;;;;;;;2.62;83.50;99937.45;1734749;82;21582;-58
2022/11/22 14:37:40;;;;;;;19.07;12.03;;;;;;;2.59;83.38;99931.84;1748613;80;21246;-57
2022/11/22 14:40:49;;;;;;;28.62;17.67;;;;;;;2.56;83.34;99931.25;1708881;83;21259;-57
2022/11/22 14:44:15;;;;;;;24.03;14.50;;;;;;;2.55;83.40;99936.30;1783882;80;21232;-57
2022/11/22 14:47:21;;;;;;;30.55;17.20;;;;;;;2.54;83.39;99930.52;1781573;80;21223;-58
2022/11/22 14:50:45;;;;;;;23.65;15.20;;;;;;;2.53;83.36;99932.87;1774698;79;21346;-57
2022/11/22 14:53:58;;;;;;;25.20;14.50;;;;;;;2.53;83.42;99942.33;1799349;79;21255;-58
2022/11/22 14:57:06;;;;;;;20.32;14.33;;;;;;;2.50;83.33;99945.30;1790590;79;21304;-57
2022/11/22 15:00:32;;;;;;;18.15;14.70;;;;;;;2.46;83.29;99937.09;1764391;79;21193;-58
2022/11/22 15:04:13;;;;;;;16.25;11.78;;;;;;;2.43;83.29;99949.04;1750432;81;21208;-54
2022/11/22 15:08:03;;;;;;;22.35;14.58;;;;;;;2.39;83.20;99950.80;1764934;80;21240;-57
2022/11/22 15:11:28;;;;;;;20.00;13.48;;;;;;;2.35;83.16;99954.74;1763821;80;21562;-59
2022/11/22 15:15:14;;;;;;;22.67;14.23;;;;;;;2.28;83.12;99952.23;1763695;81;21515;-59
2022/11/22 15:18:37;;;;;;;19.60;13.93;;;;;;;2.25;83.19;99953.34;1764649;79;21227;-59
2022/11/22 15:21:46;;;;;;;18.70;13.00;;;;;;;2.23;83.22;99948.59;1737636;80;21205;-59
2022/11/22 15:25:02;;;;;;;17.45;12.68;;;;;;;2.23;83.18;99953.13;1734045;81;21459;-60
2022/11/22 15:28:09;;;;;;;16.77;11.70;;;;;;;2.19;83.18;99943.60;1755833;81;21197;-59
2022/11/22 15:31:24;;;;;;;17.20;12.20;;;;;;;2.19;83.23;99936.85;1759260;80;21785;-59
2022/11/22 15:34:31;;;;;;;16.95;11.65;;;;;;;2.19;83.22;99926.05;1763491;80;21554;-59
2022/11/22 15:37:48;;;;;;;15.90;11.50;;;;;;;2.17;83.19;99930.72;1755221;79;21738;-59
2022/11/22 15:40:57;;;;;;;18.25;12.95;;;;;;;2.13;83.20;99936.88;1748307;80;21186;-60
2022/11/22 15:44:08;;;;;;;16.55;11.93;;;;;;;2.12;83.20;99929.78;1754969;80;22031;-59
2022/11/22 15:47:20;;;;;;;13.95;10.15;;;;;;;2.14;83.19;99930.99;1755842;80;21211;-59
2022/11/22 15:50:30;;;;;;;20.25;13.18;;;;;;;2.13;83.20;99941.41;1771877;79;21190;-59
2022/11/22 15:53:39;;;;;;;22.07;15.58;;;;;;;2.09;83.10;99934.58;1738460;82;21248;-56
2022/11/22 15:57:05;;;;;;;15.68;11.88;;;;;;;2.04;83.08;99932.77;1732089;82;21310;-59
2022/11/22 16:00:30;;;;;;;13.15;10.20;;;;;;;1.96;82.95;99946.08;1807290;78;21315;-59
2022/11/22 16:03:43;;;;;;;17.98;12.23;;;;;;;1.85;82.88;99952.89;1766806;80;21201;-60
2022/11/22 16:06:50;;;;;;;26.10;17.23;;;;;;;1.78;82.97;99947.16;1740311;81;21211;-58
2022/11/22 16:09:57;;;;;;;16.42;11.83;;;;;;;1.78;83.04;99959.78;1734361;80;21180;-59
2022/11/22 16:13:04;;;;;;;18.07;12.95;;;;;;;1.77;83.00;99976.97;1766727;80;21750;-59
2022/11/22 16:16:24;;;;;;;17.30;11.50;;;;;;;1.76;83.03;99980.66;1766986;80;21418;-59
2022/11/22 16:19:31;;;;;;;17.45;12.73;;;;;;;1.74;83.04;99983.49;1766306;80;21178;-59
2022/11/22 16:22:39;;;;;;;18.00;14.20;;;;;;;1.69;83.01;99980.80;1766707;80;21702;-59
2022/11/22 16:25:53;;;;;;;18.17;13.58;;;;;;;1.66;83.03;99980.58;1767565;80;21189;-59
2022/11/22 16:29:01;;;;;;;14.55;11.70;;;;;;;1.68;83.07;99975.06;1766517;80;21797;-59
2022/11/22 16:32:10;;;;;;;20.85;13.55;;;;;;;1.69;83.10;99980.80;1766608;80;21645;-59
2022/11/22 16:35:22;;;;;;;17.90;12.45;;;;;;;1.73;83.20;99989.85;1768919;79;21205;-59
2022/11/22 16:38:28;;;;;;;15.28;12.40;;;;;;;1.76;83.15;99989.59;1765334;79;21685;-58